sensor_id;sensor_type;location;lat;lon;timestamp;pressure;altitude;pressure_sealevel;temperature;humidity
35655;BME280;21773;50.010;19.972;2023-02-03T00:02:42;99251.13;;;7.17;53.39
35655;BME280;21773;50.010;19.972;2023-02-03T00:05:46;99255.00;;;7.14;53.58
35655;BME280;21773;50.010;19.972;2023-02-03T00:08:51;99253.53;;;7.12;53.43
35655;BME280;21773;50.010;19.972;2023-02-03T00:11:57;99247.09;;;7.06;53.40
35655;BME280;21773;50.010;19.972;2023-02-03T00:15:00;99251.34;;;7.01;53.36
35655;BME280;21773;50.010;19.972;2023-02-03T00:18:04;99237.97;;;7.01;53.49
35655;BME280;21773;50.010;19.972;2023-02-03T00:21:07;99251.50;;;6.92;53.57
35655;BME280;21773;50.010;19.972;2023-02-03T00:24:10;99255.84;;;6.93;53.60
35655;BME280;21773;50.010;19.972;2023-02-03T00:27:15;99256.50;;;6.81;53.81
35655;BME280;21773;50.010;19.972;2023-02-03T00:30:19;99278.19;;;6.86;53.87
35655;BME280;21773;50.010;19.972;2023-02-03T00:33:23;99278.03;;;6.87;53.79
35655;BME280;21773;50.010;19.972;2023-02-03T00:36:27;99283.00;;;6.90;53.93
35655;BME280;21773;50.010;19.972;2023-02-03T00:39:30;99278.84;;;6.88;53.99
35655;BME280;21773;50.010;19.972;2023-02-03T00:42:35;99296.78;;;6.87;53.93
35655;BME280;21773;50.010;19.972;2023-02-03T00:45:39;99297.06;;;6.92;53.98
35655;BME280;21773;50.010;19.972;2023-02-03T00:48:42;99297.69;;;6.94;53.96
35655;BME280;21773;50.010;19.972;2023-02-03T00:51:47;99287.63;;;6.96;53.89
35655;BME280;21773;50.010;19.972;2023-02-03T00:54:50;99291.56;;;7.01;53.71
35655;BME280;21773;50.010;19.972;2023-02-03T00:57:54;99301.00;;;6.96;53.50
35655;BME280;21773;50.010;19.972;2023-02-03T01:00:58;99294.56;;;6.91;53.71
35655;BME280;21773;50.010;19.972;2023-02-03T01:04:01;99299.28;;;6.89;53.90
35655;BME280;21773;50.010;19.972;2023-02-03T01:07:07;99301.50;;;6.85;53.83
35655;BME280;21773;50.010;19.972;2023-02-03T01:10:10;99292.81;;;6.83;53.91
35655;BME280;21773;50.010;19.972;2023-02-03T01:13:17;99303.28;;;6.78;53.92
35655;BME280;21773;50.010;19.972;2023-02-03T01:16:21;99300.06;;;6.68;54.09
35655;BME280;21773;50.010;19.972;2023-02-03T01:19:25;99306.69;;;6.72;54.02
35655;BME280;21773;50.010;19.972;2023-02-03T01:22:29;99298.69;;;6.58;54.78
35655;BME280;21773;50.010;19.972;2023-02-03T01:25:34;99309.66;;;6.63;55.02
35655;BME280;21773;50.010;19.972;2023-02-03T01:28:39;99318.09;;;6.60;55.82
35655;BME280;21773;50.010;19.972;2023-02-03T01:31:42;99307.44;;;6.66;56.07
35655;BME280;21773;50.010;19.972;2023-02-03T01:34:46;99301.91;;;6.68;55.74
35655;BME280;21773;50.010;19.972;2023-02-03T01:37:49;99313.91;;;6.57;55.93
35655;BME280;21773;50.010;19.972;2023-02-03T01:40:52;99314.38;;;6.61;55.97
35655;BME280;21773;50.010;19.972;2023-02-03T01:43:58;99304.03;;;6.58;55.88
35655;BME280;21773;50.010;19.972;2023-02-03T01:47:02;99306.16;;;6.62;55.71
35655;BME280;21773;50.010;19.972;2023-02-03T01:50:12;99300.22;;;6.67;55.64
35655;BME280;21773;50.010;19.972;2023-02-03T01:53:17;99301.34;;;6.58;55.40
35655;BME280;21773;50.010;19.972;2023-02-03T01:56:21;99278.44;;;6.55;55.07
35655;BME280;21773;50.010;19.972;2023-02-03T01:59:29;99298.84;;;6.71;54.59
35655;BME280;21773;50.010;19.972;2023-02-03T02:02:33;99288.50;;;6.68;54.04
35655;BME280;21773;50.010;19.972;2023-02-03T02:05:40;99295.97;;;6.72;53.85
35655;BME280;21773;50.010;19.972;2023-02-03T02:08:49;99279.91;;;6.72;53.72
35655;BME280;21773;50.010;19.972;2023-02-03T02:11:53;99282.41;;;6.74;53.26
35655;BME280;21773;50.010;19.972;2023-02-03T02:14:57;99279.72;;;6.74;53.03
35655;BME280;21773;50.010;19.972;2023-02-03T02:18:12;99271.69;;;6.74;52.89
35655;BME280;21773;50.010;19.972;2023-02-03T02:25:11;99272.00;;;6.85;52.33
35655;BME280;21773;50.010;19.972;2023-02-03T02:28:45;99279.16;;;6.78;52.41
35655;BME280;21773;50.010;19.972;2023-02-03T02:32:16;99282.84;;;6.77;52.21
35655;BME280;21773;50.010;19.972;2023-02-03T02:35:31;99277.88;;;6.74;51.53
35655;BME280;21773;50.010;19.972;2023-02-03T02:38:48;99280.56;;;6.74;52.02
35655;BME280;21773;50.010;19.972;2023-02-03T02:41:57;99264.03;;;6.56;51.98
35655;BME280;21773;50.010;19.972;2023-02-03T02:45:08;99287.28;;;6.70;52.24
35655;BME280;21773;50.010;19.972;2023-02-03T02:48:21;99289.13;;;6.70;52.07
35655;BME280;21773;50.010;19.972;2023-02-03T02:51:28;99288.69;;;6.66;52.24
35655;BME280;21773;50.010;19.972;2023-02-03T02:54:37;99289.81;;;6.57;52.06
35655;BME280;21773;50.010;19.972;2023-02-03T02:57:43;99277.53;;;6.48;51.76
35655;BME280;21773;50.010;19.972;2023-02-03T03:00:51;99273.91;;;6.41;51.74
35655;BME280;21773;50.010;19.972;2023-02-03T03:03:56;99273.91;;;6.41;51.90
35655;BME280;21773;50.010;19.972;2023-02-03T03:07:04;99269.22;;;6.43;51.80
35655;BME280;21773;50.010;19.972;2023-02-03T03:10:11;99259.34;;;6.29;51.62
35655;BME280;21773;50.010;19.972;2023-02-03T03:13:21;99196.69;;;5.94;51.37
35655;BME280;21773;50.010;19.972;2023-02-03T03:16:28;99245.03;;;6.22;51.76
35655;BME280;21773;50.010;19.972;2023-02-03T03:19:39;99236.94;;;6.15;51.81
35655;BME280;21773;50.010;19.972;2023-02-03T03:22:49;99233.88;;;6.03;51.96
35655;BME280;21773;50.010;19.972;2023-02-03T03:26:01;99231.75;;;5.99;51.70
35655;BME280;21773;50.010;19.972;2023-02-03T03:29:09;99232.28;;;5.94;52.22
35655;BME280;21773;50.010;19.972;2023-02-03T03:32:14;99243.72;;;5.88;52.17
35655;BME280;21773;50.010;19.972;2023-02-03T03:35:19;99248.75;;;5.83;52.45
35655;BME280;21773;50.010;19.972;2023-02-03T03:38:29;99257.50;;;5.77;52.31
35655;BME280;21773;50.010;19.972;2023-02-03T03:41:40;99270.13;;;5.68;52.57
35655;BME280;21773;50.010;19.972;2023-02-03T03:44:51;99278.16;;;5.68;52.78
35655;BME280;21773;50.010;19.972;2023-02-03T03:48:00;99275.38;;;5.62;52.55
35655;BME280;21773;50.010;19.972;2023-02-03T03:51:12;99282.97;;;5.73;52.77
35655;BME280;21773;50.010;19.972;2023-02-03T03:54:20;99271.97;;;5.68;52.21
35655;BME280;21773;50.010;19.972;2023-02-03T03:57:28;99254.66;;;5.79;52.00
35655;BME280;21773;50.010;19.972;2023-02-03T04:00:37;99270.25;;;5.75;51.91
35655;BME280;21773;50.010;19.972;2023-02-03T04:03:45;99251.78;;;5.65;52.05
35655;BME280;21773;50.010;19.972;2023-02-03T04:06:51;99231.31;;;5.73;51.88
35655;BME280;21773;50.010;19.972;2023-02-03T04:09:54;99231.50;;;5.71;51.83
35655;BME280;21773;50.010;19.972;2023-02-03T04:12:59;99230.19;;;5.67;51.99
35655;BME280;21773;50.010;19.972;2023-02-03T04:16:02;99235.00;;;5.57;52.20
35655;BME280;21773;50.010;19.972;2023-02-03T04:19:06;99220.47;;;5.37;51.97
35655;BME280;21773;50.010;19.972;2023-02-03T04:22:10;99225.25;;;5.41;51.82
35655;BME280;21773;50.010;19.972;2023-02-03T04:25:14;99213.91;;;5.39;51.67
35655;BME280;21773;50.010;19.972;2023-02-03T04:28:17;99210.31;;;5.32;51.71
35655;BME280;21773;50.010;19.972;2023-02-03T04:31:20;99219.81;;;5.35;51.73
35655;BME280;21773;50.010;19.972;2023-02-03T04:34:24;99223.72;;;5.24;51.91
35655;BME280;21773;50.010;19.972;2023-02-03T04:37:29;99222.84;;;5.32;51.90
35655;BME280;21773;50.010;19.972;2023-02-03T04:40:32;99229.59;;;5.19;51.94
35655;BME280;21773;50.010;19.972;2023-02-03T04:43:36;99217.53;;;5.23;51.83
35655;BME280;21773;50.010;19.972;2023-02-03T04:46:39;99222.88;;;5.23;51.86
35655;BME280;21773;50.010;19.972;2023-02-03T04:49:42;99215.41;;;5.19;51.93
35655;BME280;21773;50.010;19.972;2023-02-03T04:52:47;99213.09;;;5.16;51.92
35655;BME280;21773;50.010;19.972;2023-02-03T04:55:50;99212.66;;;5.12;52.10
35655;BME280;21773;50.010;19.972;2023-02-03T04:58:53;99200.28;;;5.11;52.00
35655;BME280;21773;50.010;19.972;2023-02-03T05:01:57;99203.50;;;5.07;52.10
35655;BME280;21773;50.010;19.972;2023-02-03T05:05:00;99202.13;;;5.11;52.03
35655;BME280;21773;50.010;19.972;2023-02-03T05:08:05;99209.31;;;5.10;52.22
35655;BME280;21773;50.010;19.972;2023-02-03T05:11:08;99201.41;;;4.94;52.27
35655;BME280;21773;50.010;19.972;2023-02-03T05:14:11;99205.97;;;5.08;52.29
35655;BME280;21773;50.010;19.972;2023-02-03T05:17:15;99205.22;;;5.00;52.43
35655;BME280;21773;50.010;19.972;2023-02-03T05:20:19;99200.41;;;4.95;52.47
35655;BME280;21773;50.010;19.972;2023-02-03T05:23:23;99194.88;;;4.97;52.54
35655;BME280;21773;50.010;19.972;2023-02-03T05:26:27;99188.13;;;4.86;52.47
35655;BME280;21773;50.010;19.972;2023-02-03T05:29:30;99191.75;;;4.93;52.46
35655;BME280;21773;50.010;19.972;2023-02-03T05:32:33;99185.06;;;4.89;52.61
35655;BME280;21773;50.010;19.972;2023-02-03T05:35:36;99173.50;;;4.97;52.65
35655;BME280;21773;50.010;19.972;2023-02-03T05:38:41;99178.84;;;4.97;52.61
35655;BME280;21773;50.010;19.972;2023-02-03T05:41:44;99167.78;;;5.00;52.44
35655;BME280;21773;50.010;19.972;2023-02-03T05:44:59;99171.13;;;5.02;52.31
35655;BME280;21773;50.010;19.972;2023-02-03T05:48:03;99170.59;;;5.06;52.08
35655;BME280;21773;50.010;19.972;2023-02-03T05:51:08;99169.09;;;5.04;52.13
35655;BME280;21773;50.010;19.972;2023-02-03T05:54:12;99165.53;;;5.11;52.15
35655;BME280;21773;50.010;19.972;2023-02-03T05:57:16;99165.09;;;5.08;51.64
35655;BME280;21773;50.010;19.972;2023-02-03T06:00:20;99161.19;;;5.10;51.96
35655;BME280;21773;50.010;19.972;2023-02-03T06:03:24;99158.16;;;5.13;51.76
35655;BME280;21773;50.010;19.972;2023-02-03T06:06:28;99140.84;;;5.24;51.57
35655;BME280;21773;50.010;19.972;2023-02-03T06:09:36;99142.81;;;5.30;51.21
35655;BME280;21773;50.010;19.972;2023-02-03T06:12:39;99133.25;;;5.36;50.97
35655;BME280;21773;50.010;19.972;2023-02-03T06:15:42;99137.09;;;5.33;51.20
35655;BME280;21773;50.010;19.972;2023-02-03T06:18:46;99133.13;;;5.29;50.92
35655;BME280;21773;50.010;19.972;2023-02-03T06:21:49;99117.75;;;5.31;50.98
35655;BME280;21773;50.010;19.972;2023-02-03T06:24:53;99111.69;;;5.37;50.71
35655;BME280;21773;50.010;19.972;2023-02-03T06:27:57;99103.19;;;5.48;50.55
35655;BME280;21773;50.010;19.972;2023-02-03T06:31:00;99102.56;;;5.46;50.54
35655;BME280;21773;50.010;19.972;2023-02-03T06:34:04;99103.00;;;5.50;50.45
35655;BME280;21773;50.010;19.972;2023-02-03T06:37:07;99083.34;;;5.57;50.24
35655;BME280;21773;50.010;19.972;2023-02-03T06:40:12;99079.88;;;5.57;49.93
35655;BME280;21773;50.010;19.972;2023-02-03T06:43:16;99075.59;;;5.62;49.51
35655;BME280;21773;50.010;19.972;2023-02-03T06:46:19;99078.94;;;5.64;49.37
35655;BME280;21773;50.010;19.972;2023-02-03T06:49:22;99076.44;;;5.63;49.05
35655;BME280;21773;50.010;19.972;2023-02-03T06:52:26;99072.03;;;5.70;48.83
35655;BME280;21773;50.010;19.972;2023-02-03T06:55:30;99073.19;;;5.82;48.61
35655;BME280;21773;50.010;19.972;2023-02-03T06:58:33;99068.13;;;5.87;48.10
35655;BME280;21773;50.010;19.972;2023-02-03T07:01:37;99061.38;;;5.91;48.04
35655;BME280;21773;50.010;19.972;2023-02-03T07:04:40;99068.31;;;6.00;47.90
35655;BME280;21773;50.010;19.972;2023-02-03T07:07:45;99067.38;;;6.08;47.60
35655;BME280;21773;50.010;19.972;2023-02-03T07:10:54;99066.97;;;6.11;46.94
35655;BME280;21773;50.010;19.972;2023-02-03T07:13:57;99056.19;;;6.19;46.99
35655;BME280;21773;50.010;19.972;2023-02-03T07:17:01;99053.28;;;6.21;46.79
35655;BME280;21773;50.010;19.972;2023-02-03T07:20:05;99050.13;;;6.32;46.19
35655;BME280;21773;50.010;19.972;2023-02-03T07:23:09;99040.69;;;6.36;45.81
35655;BME280;21773;50.010;19.972;2023-02-03T07:26:14;99031.69;;;6.43;45.66
35655;BME280;21773;50.010;19.972;2023-02-03T07:29:17;99032.78;;;6.49;45.59
35655;BME280;21773;50.010;19.972;2023-02-03T07:32:20;99033.66;;;6.56;44.95
35655;BME280;21773;50.010;19.972;2023-02-03T07:35:24;99036.41;;;6.63;44.95
35655;BME280;21773;50.010;19.972;2023-02-03T07:38:28;99027.41;;;6.70;45.19
35655;BME280;21773;50.010;19.972;2023-02-03T07:41:33;99030.19;;;6.83;44.20
35655;BME280;21773;50.010;19.972;2023-02-03T07:44:36;99026.34;;;6.92;43.98
35655;BME280;21773;50.010;19.972;2023-02-03T07:47:39;99012.00;;;7.07;43.41
35655;BME280;21773;50.010;19.972;2023-02-03T07:50:43;98982.88;;;6.97;43.28
35655;BME280;21773;50.010;19.972;2023-02-03T07:53:46;99005.28;;;7.17;43.50
35655;BME280;21773;50.010;19.972;2023-02-03T07:56:51;98993.13;;;7.21;43.17
35655;BME280;21773;50.010;19.972;2023-02-03T07:59:55;98988.78;;;7.20;43.13
35655;BME280;21773;50.010;19.972;2023-02-03T08:02:58;98985.69;;;7.23;42.65
35655;BME280;21773;50.010;19.972;2023-02-03T08:06:01;98982.69;;;7.33;43.10
35655;BME280;21773;50.010;19.972;2023-02-03T08:09:04;98980.38;;;7.30;42.26
35655;BME280;21773;50.010;19.972;2023-02-03T08:12:09;98972.09;;;7.25;41.80
35655;BME280;21773;50.010;19.972;2023-02-03T08:15:12;98971.31;;;7.31;41.80
35655;BME280;21773;50.010;19.972;2023-02-03T08:18:16;98971.50;;;7.29;41.16
35655;BME280;21773;50.010;19.972;2023-02-03T08:21:19;98962.81;;;7.21;41.10
35655;BME280;21773;50.010;19.972;2023-02-03T08:24:22;98955.28;;;7.03;41.46
35655;BME280;21773;50.010;19.972;2023-02-03T08:27:27;98949.28;;;7.01;41.48
35655;BME280;21773;50.010;19.972;2023-02-03T08:30:31;98944.56;;;7.03;41.49
35655;BME280;21773;50.010;19.972;2023-02-03T08:33:34;98932.00;;;7.04;41.58
35655;BME280;21773;50.010;19.972;2023-02-03T08:36:37;98927.91;;;7.14;40.78
35655;BME280;21773;50.010;19.972;2023-02-03T08:39:41;98907.47;;;7.07;40.33
35655;BME280;21773;50.010;19.972;2023-02-03T08:42:45;98920.72;;;7.21;40.37
35655;BME280;21773;50.010;19.972;2023-02-03T08:45:49;98914.13;;;7.17;39.36
35655;BME280;21773;50.010;19.972;2023-02-03T08:48:52;98915.97;;;7.17;39.13
35655;BME280;21773;50.010;19.972;2023-02-03T08:51:57;98903.22;;;7.25;39.55
35655;BME280;21773;50.010;19.972;2023-02-03T08:55:01;98895.59;;;7.29;38.87
35655;BME280;21773;50.010;19.972;2023-02-03T08:58:05;98885.09;;;7.27;38.60
35655;BME280;21773;50.010;19.972;2023-02-03T09:01:10;98877.88;;;7.34;38.22
35655;BME280;21773;50.010;19.972;2023-02-03T09:04:16;98878.25;;;7.25;37.25
35655;BME280;21773;50.010;19.972;2023-02-03T09:07:20;98878.47;;;7.30;37.02
35655;BME280;21773;50.010;19.972;2023-02-03T09:10:23;98875.66;;;7.51;37.67
35655;BME280;21773;50.010;19.972;2023-02-03T09:13:31;98872.19;;;7.57;37.77
35655;BME280;21773;50.010;19.972;2023-02-03T09:16:35;98866.84;;;7.70;37.77
35655;BME280;21773;50.010;19.972;2023-02-03T09:19:39;98848.66;;;7.72;37.06
35655;BME280;21773;50.010;19.972;2023-02-03T09:22:42;98857.78;;;7.84;36.71
35655;BME280;21773;50.010;19.972;2023-02-03T09:25:45;98859.00;;;8.02;36.21
35655;BME280;21773;50.010;19.972;2023-02-03T09:28:53;98850.75;;;8.23;35.76
35655;BME280;21773;50.010;19.972;2023-02-03T09:31:56;98859.06;;;8.35;35.03
35655;BME280;21773;50.010;19.972;2023-02-03T09:35:01;98856.94;;;8.63;35.39
35655;BME280;21773;50.010;19.972;2023-02-03T09:38:04;98838.06;;;8.83;34.71
35655;BME280;21773;50.010;19.972;2023-02-03T09:41:16;98841.34;;;8.85;33.89
35655;BME280;21773;50.010;19.972;2023-02-03T09:44:26;98835.38;;;8.83;34.00
35655;BME280;21773;50.010;19.972;2023-02-03T09:47:36;98835.78;;;8.86;35.48
35655;BME280;21773;50.010;19.972;2023-02-03T09:50:42;98820.31;;;8.75;34.65
35655;BME280;21773;50.010;19.972;2023-02-03T09:53:50;98812.72;;;8.59;34.96
35655;BME280;21773;50.010;19.972;2023-02-03T09:56:56;98814.38;;;8.47;35.58
35655;BME280;21773;50.010;19.972;2023-02-03T10:00:13;98795.19;;;8.43;35.69
35655;BME280;21773;50.010;19.972;2023-02-03T10:03:26;98801.38;;;8.37;36.89
35655;BME280;21773;50.010;19.972;2023-02-03T10:06:36;98808.84;;;8.35;37.02
35655;BME280;21773;50.010;19.972;2023-02-03T10:09:49;98796.03;;;8.11;38.17
35655;BME280;21773;50.010;19.972;2023-02-03T10:13:05;98791.28;;;8.13;38.73
35655;BME280;21773;50.010;19.972;2023-02-03T10:16:34;98775.16;;;8.13;40.18
35655;BME280;21773;50.010;19.972;2023-02-03T10:19:44;98758.84;;;8.14;40.85
35655;BME280;21773;50.010;19.972;2023-02-03T10:22:51;98740.81;;;8.48;40.51
35655;BME280;21773;50.010;19.972;2023-02-03T10:25:58;98726.94;;;8.57;40.54
35655;BME280;21773;50.010;19.972;2023-02-03T10:29:07;98714.91;;;8.66;40.67
35655;BME280;21773;50.010;19.972;2023-02-03T10:32:16;98697.50;;;8.76;41.44
35655;BME280;21773;50.010;19.972;2023-02-03T10:35:20;98706.81;;;8.73;41.53
35655;BME280;21773;50.010;19.972;2023-02-03T10:38:42;98690.97;;;8.58;42.40
35655;BME280;21773;50.010;19.972;2023-02-03T10:41:48;98689.13;;;8.52;43.03
35655;BME280;21773;50.010;19.972;2023-02-03T10:44:54;98664.78;;;8.41;43.32
35655;BME280;21773;50.010;19.972;2023-02-03T10:47:59;98658.66;;;8.20;43.63
35655;BME280;21773;50.010;19.972;2023-02-03T10:51:03;98649.13;;;8.24;44.12
35655;BME280;21773;50.010;19.972;2023-02-03T10:54:26;98627.84;;;8.23;44.41
35655;BME280;21773;50.010;19.972;2023-02-03T10:57:33;98614.03;;;8.19;44.25
35655;BME280;21773;50.010;19.972;2023-02-03T11:00:37;98607.22;;;8.17;45.00
35655;BME280;21773;50.010;19.972;2023-02-03T11:03:44;98599.66;;;8.01;44.91
35655;BME280;21773;50.010;19.972;2023-02-03T11:06:57;98591.75;;;8.12;45.28
35655;BME280;21773;50.010;19.972;2023-02-03T11:10:03;98583.13;;;8.04;45.48
35655;BME280;21773;50.010;19.972;2023-02-03T11:13:18;98570.53;;;8.04;46.03
35655;BME280;21773;50.010;19.972;2023-02-03T11:16:22;98546.25;;;7.86;46.40
35655;BME280;21773;50.010;19.972;2023-02-03T11:19:28;98541.50;;;7.81;47.50
35655;BME280;21773;50.010;19.972;2023-02-03T11:22:35;98525.88;;;7.65;47.94
35655;BME280;21773;50.010;19.972;2023-02-03T11:25:39;98525.28;;;7.50;48.96
35655;BME280;21773;50.010;19.972;2023-02-03T11:28:45;98512.78;;;7.24;49.65
35655;BME280;21773;50.010;19.972;2023-02-03T11:31:51;98498.59;;;6.97;50.63
35655;BME280;21773;50.010;19.972;2023-02-03T11:34:59;98495.72;;;6.92;51.22
35655;BME280;21773;50.010;19.972;2023-02-03T11:38:03;98478.63;;;6.54;52.65
35655;BME280;21773;50.010;19.972;2023-02-03T11:41:14;98477.81;;;6.47;53.14
35655;BME280;21773;50.010;19.972;2023-02-03T11:44:21;98446.91;;;6.31;53.64
35655;BME280;21773;50.010;19.972;2023-02-03T11:47:25;98447.69;;;6.12;54.25
35655;BME280;21773;50.010;19.972;2023-02-03T11:50:35;98429.16;;;6.04;55.08
35655;BME280;21773;50.010;19.972;2023-02-03T11:53:51;98415.72;;;5.84;56.27
35655;BME280;21773;50.010;19.972;2023-02-03T11:57:17;98399.34;;;6.00;55.99
35655;BME280;21773;50.010;19.972;2023-02-03T12:00:30;98380.38;;;6.22;55.91
35655;BME280;21773;50.010;19.972;2023-02-03T12:04:04;98373.38;;;6.27;55.98
35655;BME280;21773;50.010;19.972;2023-02-03T12:07:27;98357.13;;;6.29;56.43
35655;BME280;21773;50.010;19.972;2023-02-03T12:10:43;98349.72;;;6.24;56.77
35655;BME280;21773;50.010;19.972;2023-02-03T12:14:00;98331.34;;;6.41;56.71
35655;BME280;21773;50.010;19.972;2023-02-03T12:17:34;98321.28;;;6.49;56.21
35655;BME280;21773;50.010;19.972;2023-02-03T12:20:56;98305.78;;;6.58;56.18
35655;BME280;21773;50.010;19.972;2023-02-03T12:24:13;98294.66;;;6.61;56.48
35655;BME280;21773;50.010;19.972;2023-02-03T12:27:26;98289.47;;;6.66;56.49
35655;BME280;21773;50.010;19.972;2023-02-03T12:30:37;98275.56;;;6.44;57.23
35655;BME280;21773;50.010;19.972;2023-02-03T12:33:43;98264.22;;;6.42;57.44
35655;BME280;21773;50.010;19.972;2023-02-03T12:36:51;98257.00;;;6.43;57.56
35655;BME280;21773;50.010;19.972;2023-02-03T12:40:04;98253.28;;;6.50;57.62
35655;BME280;21773;50.010;19.972;2023-02-03T12:43:20;98238.03;;;6.51;57.84
35655;BME280;21773;50.010;19.972;2023-02-03T12:46:29;98224.41;;;6.59;57.83
35655;BME280;21773;50.010;19.972;2023-02-03T12:49:40;98216.13;;;6.67;58.01
35655;BME280;21773;50.010;19.972;2023-02-03T12:52:50;98208.94;;;6.68;58.21
35655;BME280;21773;50.010;19.972;2023-02-03T12:55:59;98198.84;;;6.63;58.70
35655;BME280;21773;50.010;19.972;2023-02-03T12:59:10;98195.66;;;6.79;58.66
35655;BME280;21773;50.010;19.972;2023-02-03T13:02:22;98183.53;;;6.77;58.98
35655;BME280;21773;50.010;19.972;2023-02-03T13:05:32;98174.00;;;6.87;58.93
35655;BME280;21773;50.010;19.972;2023-02-03T13:08:40;98161.59;;;6.93;59.11
35655;BME280;21773;50.010;19.972;2023-02-03T13:11:51;98160.78;;;6.92;59.48
35655;BME280;21773;50.010;19.972;2023-02-03T13:15:03;98134.16;;;6.97;59.60
35655;BME280;21773;50.010;19.972;2023-02-03T13:18:17;98132.66;;;7.02;59.78
35655;BME280;21773;50.010;19.972;2023-02-03T13:21:22;98119.06;;;7.03;59.75
35655;BME280;21773;50.010;19.972;2023-02-03T13:24:27;98109.91;;;7.11;59.60
35655;BME280;21773;50.010;19.972;2023-02-03T13:27:44;98102.22;;;7.21;59.52
35655;BME280;21773;50.010;19.972;2023-02-03T13:31:05;98095.28;;;7.13;59.68
35655;BME280;21773;50.010;19.972;2023-02-03T13:34:36;98083.44;;;7.21;59.48
35655;BME280;21773;50.010;19.972;2023-02-03T13:41:37;98057.41;;;7.28;59.53
35655;BME280;21773;50.010;19.972;2023-02-03T13:44:49;98052.84;;;7.28;59.45
35655;BME280;21773;50.010;19.972;2023-02-03T13:47:56;98042.19;;;7.22;59.71
35655;BME280;21773;50.010;19.972;2023-02-03T13:51:05;98037.81;;;7.27;59.46
35655;BME280;21773;50.010;19.972;2023-02-03T13:54:14;98022.41;;;7.23;59.67
35655;BME280;21773;50.010;19.972;2023-02-03T13:57:20;98013.38;;;7.17;59.95
35655;BME280;21773;50.010;19.972;2023-02-03T14:01:04;98009.66;;;7.18;59.99
35655;BME280;21773;50.010;19.972;2023-02-03T14:07:56;97989.78;;;7.08;60.61
35655;BME280;21773;50.010;19.972;2023-02-03T14:11:39;97977.41;;;7.07;60.60
35655;BME280;21773;50.010;19.972;2023-02-03T14:18:30;97948.97;;;7.06;60.88
35655;BME280;21773;50.010;19.972;2023-02-03T14:21:46;97933.75;;;7.00;61.21
35655;BME280;21773;50.010;19.972;2023-02-03T14:24:54;97941.66;;;6.94;61.46
35655;BME280;21773;50.010;19.972;2023-02-03T14:27:59;97922.66;;;6.78;61.74
35655;BME280;21773;50.010;19.972;2023-02-03T14:31:08;97908.94;;;6.68;62.32
35655;BME280;21773;50.010;19.972;2023-02-03T14:34:14;97908.50;;;6.71;62.35
35655;BME280;21773;50.010;19.972;2023-02-03T14:37:21;97892.59;;;6.76;62.18
35655;BME280;21773;50.010;19.972;2023-02-03T14:40:33;97889.22;;;6.62;62.97
35655;BME280;21773;50.010;19.972;2023-02-03T14:43:44;97887.56;;;6.61;62.90
35655;BME280;21773;50.010;19.972;2023-02-03T14:47:16;97875.88;;;6.56;63.35
35655;BME280;21773;50.010;19.972;2023-02-03T14:50:36;97864.81;;;6.52;63.46
35655;BME280;21773;50.010;19.972;2023-02-03T14:53:59;97867.44;;;6.59;63.29
35655;BME280;21773;50.010;19.972;2023-02-03T14:57:18;97860.06;;;6.54;63.45
35655;BME280;21773;50.010;19.972;2023-02-03T15:00:28;97850.25;;;6.66;63.22
35655;BME280;21773;50.010;19.972;2023-02-03T15:03:32;97845.03;;;6.53;63.84
35655;BME280;21773;50.010;19.972;2023-02-03T15:06:40;97851.38;;;6.59;63.67
35655;BME280;21773;50.010;19.972;2023-02-03T15:09:45;97832.53;;;6.65;63.52
35655;BME280;21773;50.010;19.972;2023-02-03T15:12:52;97834.03;;;6.61;63.73
35655;BME280;21773;50.010;19.972;2023-02-03T15:15:58;97832.22;;;6.55;64.03
35655;BME280;21773;50.010;19.972;2023-02-03T15:19:02;97833.88;;;6.56;64.13
35655;BME280;21773;50.010;19.972;2023-02-03T15:22:20;97825.31;;;6.47;64.47
35655;BME280;21773;50.010;19.972;2023-02-03T15:25:26;97831.84;;;6.51;64.59
35655;BME280;21773;50.010;19.972;2023-02-03T15:28:32;97827.69;;;6.56;63.99
35655;BME280;21773;50.010;19.972;2023-02-03T15:31:38;97842.41;;;6.65;63.81
35655;BME280;21773;50.010;19.972;2023-02-03T15:34:46;97842.66;;;6.45;64.61
35655;BME280;21773;50.010;19.972;2023-02-03T15:37:52;97828.19;;;6.28;65.10
35655;BME280;21773;50.010;19.972;2023-02-03T15:40:57;97848.25;;;6.37;65.24
35655;BME280;21773;50.010;19.972;2023-02-03T15:44:06;97838.69;;;6.29;65.26
35655;BME280;21773;50.010;19.972;2023-02-03T15:47:20;97831.06;;;6.26;65.53
35655;BME280;21773;50.010;19.972;2023-02-03T15:50:28;97848.22;;;6.43;65.25
35655;BME280;21773;50.010;19.972;2023-02-03T15:53:42;97847.53;;;6.30;66.05
35655;BME280;21773;50.010;19.972;2023-02-03T15:56:50;97835.00;;;6.24;66.48
35655;BME280;21773;50.010;19.972;2023-02-03T16:00:07;97826.28;;;6.35;66.53
35655;BME280;21773;50.010;19.972;2023-02-03T16:03:17;97818.59;;;6.38;66.69
35655;BME280;21773;50.010;19.972;2023-02-03T16:06:26;97814.22;;;6.44;66.95
35655;BME280;21773;50.010;19.972;2023-02-03T16:09:39;97812.44;;;6.38;67.20
35655;BME280;21773;50.010;19.972;2023-02-03T16:12:43;97811.03;;;6.53;66.90
35655;BME280;21773;50.010;19.972;2023-02-03T16:16:04;97817.69;;;6.69;66.65
35655;BME280;21773;50.010;19.972;2023-02-03T16:19:12;97800.69;;;6.75;66.12
35655;BME280;21773;50.010;19.972;2023-02-03T16:22:26;97810.84;;;6.73;67.10
35655;BME280;21773;50.010;19.972;2023-02-03T16:25:34;97813.13;;;6.88;66.84
35655;BME280;21773;50.010;19.972;2023-02-03T16:28:38;97800.84;;;6.99;66.36
35655;BME280;21773;50.010;19.972;2023-02-03T16:32:01;97821.94;;;7.25;66.48
35655;BME280;21773;50.010;19.972;2023-02-03T16:35:22;97790.16;;;7.10;66.41
35655;BME280;21773;50.010;19.972;2023-02-03T16:38:44;97815.34;;;7.39;66.88
35655;BME280;21773;50.010;19.972;2023-02-03T16:42:11;97811.22;;;7.55;67.04
35655;BME280;21773;50.010;19.972;2023-02-03T16:45:33;97826.69;;;7.53;67.26
35655;BME280;21773;50.010;19.972;2023-02-03T16:48:55;97840.09;;;7.53;66.95
35655;BME280;21773;50.010;19.972;2023-02-03T16:52:17;97839.38;;;7.75;66.65